GFA216 OKKK-OBBI
Flight info
| Callsign | GFA216 |
|---|---|
| Flight time | 0h 57m |
| Altitude | 27000 |
| Route | BOXIK B416 IMDOX P975 LONOS L703 KOBOK |
| Aircraft | A20N/M-SDE2E3FGHIRWXY/LB1 |
Departure
| Time | 2026-04-27 16:56 |
|---|---|
| Airport | Kuwait International Airport (OKKK) |
Arrival
| Time | 2026-04-27 17:53 |
|---|---|
| Airport | Bahrain International Airport (OBBI) |
| Time | Latitude | Longitude | Altitude | Speed | Heading |
|---|---|---|---|---|---|
| 2026-04-27 16:33 | 29.23814 | 47.97157 | 170 ft | 0 kts | 83° |
| 2026-04-27 16:43 | 29.23813 | 47.97148 | 170 ft | 3 kts | 83° |
| 2026-04-27 16:44 | 29.23811 | 47.97127 | 170 ft | 3 kts | 83° |
| 2026-04-27 16:44 | 29.23806 | 47.97109 | 170 ft | 2 kts | 30° |
| 2026-04-27 16:44 | 29.23790 | 47.97107 | 170 ft | 2 kts | 319° |
| 2026-04-27 16:46 | 29.23790 | 47.97106 | 170 ft | 1 kts | 317° |
| 2026-04-27 16:46 | 29.23803 | 47.97089 | 170 ft | 5 kts | 309° |
| 2026-04-27 16:47 | 29.23812 | 47.97034 | 170 ft | 9 kts | 261° |
| 2026-04-27 16:47 | 29.23784 | 47.96948 | 170 ft | 15 kts | 244° |
| 2026-04-27 16:47 | 29.23731 | 47.96824 | 169 ft | 20 kts | 243° |
| 2026-04-27 16:47 | 29.23674 | 47.96685 | 168 ft | 19 kts | 245° |
| 2026-04-27 16:48 | 29.23719 | 47.96578 | 167 ft | 16 kts | 338° |
| 2026-04-27 16:48 | 29.23822 | 47.96525 | 167 ft | 16 kts | 335° |
| 2026-04-27 16:48 | 29.23923 | 47.96472 | 167 ft | 16 kts | 335° |
| 2026-04-27 16:49 | 29.24043 | 47.96408 | 167 ft | 7 kts | 334° |
| 2026-04-27 16:49 | 29.24085 | 47.96364 | 166 ft | 10 kts | 293° |
| 2026-04-27 16:49 | 29.24073 | 47.96287 | 164 ft | 0 kts | 245° |
| 2026-04-27 16:52 | 29.24072 | 47.96285 | 164 ft | 1 kts | 245° |
| 2026-04-27 16:52 | 29.24061 | 47.96259 | 163 ft | 7 kts | 245° |
| 2026-04-27 16:53 | 29.24026 | 47.96199 | 163 ft | 9 kts | 212° |
| 2026-04-27 16:53 | 29.23963 | 47.96199 | 163 ft | 9 kts | 160° |
| 2026-04-27 16:53 | 29.23948 | 47.96206 | 163 ft | 0 kts | 156° |
| 2026-04-27 16:55 | 29.23839 | 47.96261 | 163 ft | 48 kts | 155° |
| 2026-04-27 16:55 | 29.23341 | 47.96531 | 166 ft | 109 kts | 155° |
| 2026-04-27 16:55 | 29.22506 | 47.96975 | 252 ft | 144 kts | 154° |
| 2026-04-27 16:55 | 29.21585 | 47.97474 | 621 ft | 157 kts | 154° |
| 2026-04-27 16:56 | 29.20569 | 47.98015 | 1052 ft | 158 kts | 156° |
| 2026-04-27 16:56 | 29.19708 | 47.98742 | 1597 ft | 162 kts | 124° |
| 2026-04-27 16:56 | 29.19188 | 47.99946 | 1984 ft | 175 kts | 118° |
| 2026-04-27 16:56 | 29.18782 | 48.01378 | 2262 ft | 205 kts | 107° |
| 2026-04-27 16:57 | 29.18495 | 48.03110 | 2425 ft | 244 kts | 103° |
| 2026-04-27 16:57 | 29.18237 | 48.05147 | 2798 ft | 270 kts | 102° |
| 2026-04-27 16:57 | 29.17998 | 48.07301 | 3509 ft | 275 kts | 102° |
| 2026-04-27 16:57 | 29.17765 | 48.09491 | 4325 ft | 278 kts | 102° |
| 2026-04-27 16:58 | 29.17529 | 48.11701 | 5174 ft | 281 kts | 102° |
| 2026-04-27 16:58 | 29.17287 | 48.13960 | 6046 ft | 284 kts | 103° |
| 2026-04-27 16:58 | 29.17048 | 48.16183 | 6831 ft | 288 kts | 102° |
| 2026-04-27 16:58 | 29.16801 | 48.18472 | 7520 ft | 290 kts | 102° |
| 2026-04-27 16:59 | 29.16553 | 48.20769 | 7893 ft | 293 kts | 101° |
| 2026-04-27 16:59 | 29.16302 | 48.23084 | 7995 ft | 294 kts | 101° |
| 2026-04-27 16:59 | 29.16052 | 48.25402 | 8002 ft | 293 kts | 101° |
| 2026-04-27 16:59 | 29.15801 | 48.27717 | 8004 ft | 293 kts | 101° |
| 2026-04-27 17:00 | 29.15373 | 48.31587 | 8014 ft | 293 kts | 103° |
| 2026-04-27 17:00 | 29.14541 | 48.34469 | 8232 ft | 289 kts | 125° |
| 2026-04-27 17:00 | 29.13338 | 48.36320 | 8972 ft | 291 kts | 133° |
| 2026-04-27 17:01 | 29.12018 | 48.38075 | 9904 ft | 291 kts | 134° |
| 2026-04-27 17:01 | 29.10658 | 48.39844 | 10542 ft | 304 kts | 134° |
| 2026-04-27 17:01 | 29.09207 | 48.41726 | 10850 ft | 327 kts | 134° |
| 2026-04-27 17:01 | 29.07666 | 48.43731 | 11308 ft | 342 kts | 134° |
| 2026-04-27 17:02 | 29.06078 | 48.45804 | 11987 ft | 349 kts | 133° |
| 2026-04-27 17:02 | 29.04470 | 48.47906 | 12744 ft | 355 kts | 133° |
| 2026-04-27 17:02 | 29.02932 | 48.50145 | 13547 ft | 361 kts | 128° |
| 2026-04-27 17:02 | 29.01445 | 48.52487 | 14258 ft | 367 kts | 127° |
| 2026-04-27 17:03 | 28.99964 | 48.54890 | 14957 ft | 372 kts | 127° |
| 2026-04-27 17:03 | 28.98481 | 48.57345 | 15660 ft | 378 kts | 127° |
| 2026-04-27 17:03 | 28.96988 | 48.59844 | 16350 ft | 384 kts | 127° |
| 2026-04-27 17:03 | 28.95480 | 48.62380 | 17033 ft | 390 kts | 127° |
| 2026-04-27 17:04 | 28.93946 | 48.64958 | 17716 ft | 395 kts | 128° |
| 2026-04-27 17:04 | 28.92391 | 48.67567 | 18420 ft | 398 kts | 128° |
| 2026-04-27 17:04 | 28.90824 | 48.70194 | 19017 ft | 403 kts | 128° |
| 2026-04-27 17:04 | 28.89244 | 48.72835 | 19569 ft | 409 kts | 128° |
| 2026-04-27 17:05 | 28.87637 | 48.75517 | 20137 ft | 414 kts | 128° |
| 2026-04-27 17:05 | 28.85997 | 48.78251 | 20704 ft | 420 kts | 128° |
| 2026-04-27 17:05 | 28.84341 | 48.81013 | 21275 ft | 424 kts | 128° |
| 2026-04-27 17:05 | 28.82666 | 48.83804 | 21848 ft | 429 kts | 128° |
| 2026-04-27 17:06 | 28.80971 | 48.86626 | 22386 ft | 434 kts | 128° |
| 2026-04-27 17:06 | 28.79255 | 48.89481 | 22926 ft | 438 kts | 129° |
| 2026-04-27 17:06 | 28.77524 | 48.92360 | 23448 ft | 443 kts | 129° |
| 2026-04-27 17:06 | 28.75773 | 48.95268 | 23887 ft | 447 kts | 129° |
| 2026-04-27 17:07 | 28.74007 | 48.98201 | 24340 ft | 451 kts | 129° |
| 2026-04-27 17:07 | 28.72223 | 49.01161 | 24708 ft | 456 kts | 129° |
| 2026-04-27 17:07 | 28.70410 | 49.04164 | 25082 ft | 462 kts | 129° |
| 2026-04-27 17:07 | 28.68587 | 49.07185 | 25523 ft | 464 kts | 130° |
| 2026-04-27 17:08 | 28.66752 | 49.10224 | 26016 ft | 467 kts | 130° |
| 2026-04-27 17:08 | 28.64910 | 49.13276 | 26461 ft | 469 kts | 130° |
| 2026-04-27 17:08 | 28.63057 | 49.16340 | 26761 ft | 472 kts | 130° |
| 2026-04-27 17:08 | 28.61198 | 49.19414 | 26813 ft | 472 kts | 130° |
| 2026-04-27 17:09 | 28.59187 | 49.22360 | 26811 ft | 466 kts | 140° |
| 2026-04-27 17:09 | 28.56804 | 49.24788 | 26821 ft | 456 kts | 152° |
| 2026-04-27 17:09 | 28.54151 | 49.26702 | 26821 ft | 451 kts | 157° |
| 2026-04-27 17:09 | 28.51467 | 49.28571 | 26821 ft | 455 kts | 152° |
| 2026-04-27 17:10 | 28.48934 | 49.30757 | 26827 ft | 459 kts | 148° |
| 2026-04-27 17:10 | 28.46443 | 49.33042 | 26825 ft | 460 kts | 147° |
| 2026-04-27 17:10 | 28.43988 | 49.35385 | 26824 ft | 461 kts | 146° |
| 2026-04-27 17:10 | 28.41564 | 49.37759 | 26811 ft | 461 kts | 146° |
| 2026-04-27 17:11 | 28.39140 | 49.40166 | 26820 ft | 462 kts | 146° |
| 2026-04-27 17:11 | 28.34315 | 49.44980 | 26822 ft | 462 kts | 146° |
| 2026-04-27 17:11 | 28.31898 | 49.47386 | 26824 ft | 462 kts | 146° |
| 2026-04-27 17:12 | 28.27053 | 49.52184 | 26823 ft | 462 kts | 146° |
| 2026-04-27 17:12 | 28.24628 | 49.54576 | 26814 ft | 462 kts | 147° |
| 2026-04-27 17:12 | 28.22204 | 49.56957 | 26824 ft | 461 kts | 147° |
| 2026-04-27 17:13 | 28.19728 | 49.59248 | 26820 ft | 458 kts | 149° |
| 2026-04-27 17:13 | 28.17206 | 49.61454 | 26823 ft | 457 kts | 150° |
| 2026-04-27 17:13 | 28.14664 | 49.63617 | 26823 ft | 456 kts | 151° |
| 2026-04-27 17:13 | 28.12118 | 49.65765 | 26821 ft | 456 kts | 151° |
| 2026-04-27 17:14 | 28.09575 | 49.67913 | 26821 ft | 456 kts | 151° |
| 2026-04-27 17:14 | 28.07033 | 49.70069 | 26815 ft | 456 kts | 151° |
| 2026-04-27 17:14 | 28.04494 | 49.72213 | 26820 ft | 454 kts | 152° |
| 2026-04-27 17:14 | 28.01927 | 49.74282 | 26821 ft | 452 kts | 153° |
| 2026-04-27 17:15 | 27.99336 | 49.76305 | 26822 ft | 452 kts | 154° |
| 2026-04-27 17:15 | 27.96740 | 49.78303 | 26820 ft | 452 kts | 154° |
| 2026-04-27 17:15 | 27.94134 | 49.80302 | 26820 ft | 453 kts | 154° |
| 2026-04-27 17:15 | 27.91536 | 49.82298 | 26820 ft | 453 kts | 154° |
| 2026-04-27 17:16 | 27.88927 | 49.84311 | 26817 ft | 453 kts | 153° |
| 2026-04-27 17:16 | 27.86329 | 49.86320 | 26821 ft | 453 kts | 153° |
| 2026-04-27 17:16 | 27.83734 | 49.88330 | 26818 ft | 453 kts | 153° |
| 2026-04-27 17:16 | 27.81130 | 49.90348 | 26818 ft | 453 kts | 153° |
| 2026-04-27 17:17 | 27.78532 | 49.92361 | 26819 ft | 453 kts | 153° |
| 2026-04-27 17:17 | 27.75937 | 49.94370 | 26815 ft | 453 kts | 153° |
| 2026-04-27 17:17 | 27.73338 | 49.96381 | 26815 ft | 453 kts | 153° |
| 2026-04-27 17:18 | 27.68134 | 50.00402 | 26817 ft | 454 kts | 153° |
| 2026-04-27 17:18 | 27.65522 | 50.02417 | 26823 ft | 455 kts | 153° |
| 2026-04-27 17:18 | 27.62909 | 50.04433 | 26817 ft | 455 kts | 153° |
| 2026-04-27 17:18 | 27.60305 | 50.06442 | 26817 ft | 455 kts | 153° |
| 2026-04-27 17:19 | 27.57692 | 50.08456 | 26814 ft | 455 kts | 153° |
| 2026-04-27 17:19 | 27.55077 | 50.10470 | 26801 ft | 455 kts | 153° |
| 2026-04-27 17:19 | 27.52469 | 50.12478 | 26814 ft | 455 kts | 153° |
| 2026-04-27 17:19 | 27.49852 | 50.14491 | 26815 ft | 455 kts | 153° |
| 2026-04-27 17:20 | 27.47242 | 50.16498 | 26816 ft | 455 kts | 153° |
| 2026-04-27 17:20 | 27.44623 | 50.18518 | 26815 ft | 455 kts | 153° |
| 2026-04-27 17:20 | 27.42042 | 50.20563 | 26660 ft | 452 kts | 152° |
| 2026-04-27 17:20 | 27.39500 | 50.22621 | 26420 ft | 451 kts | 152° |
| 2026-04-27 17:21 | 27.36962 | 50.24691 | 26177 ft | 450 kts | 152° |
| 2026-04-27 17:21 | 27.34429 | 50.26758 | 25931 ft | 449 kts | 152° |
| 2026-04-27 17:21 | 27.31897 | 50.28822 | 25699 ft | 448 kts | 152° |
| 2026-04-27 17:21 | 27.29413 | 50.30841 | 25466 ft | 447 kts | 152° |
| 2026-04-27 17:22 | 27.26860 | 50.32911 | 25232 ft | 446 kts | 152° |
| 2026-04-27 17:22 | 27.24344 | 50.34947 | 25000 ft | 445 kts | 152° |
| 2026-04-27 17:22 | 27.21829 | 50.36978 | 24843 ft | 444 kts | 152° |
| 2026-04-27 17:22 | 27.19356 | 50.38974 | 24777 ft | 444 kts | 152° |
| 2026-04-27 17:23 | 27.16857 | 50.40990 | 24428 ft | 441 kts | 151° |
| 2026-04-27 17:23 | 27.14361 | 50.43003 | 23782 ft | 442 kts | 150° |
| 2026-04-27 17:23 | 27.11854 | 50.45020 | 22983 ft | 445 kts | 150° |
| 2026-04-27 17:23 | 27.09331 | 50.47048 | 22124 ft | 448 kts | 150° |
| 2026-04-27 17:24 | 27.06799 | 50.49084 | 21285 ft | 449 kts | 149° |
| 2026-04-27 17:24 | 27.04251 | 50.51134 | 20470 ft | 450 kts | 149° |
| 2026-04-27 17:24 | 27.01710 | 50.53179 | 19674 ft | 449 kts | 149° |
| 2026-04-27 17:24 | 26.99132 | 50.55131 | 18889 ft | 445 kts | 155° |
| 2026-04-27 17:25 | 26.96293 | 50.56338 | 18146 ft | 434 kts | 172° |
| 2026-04-27 17:25 | 26.93355 | 50.56964 | 17662 ft | 425 kts | 169° |
| 2026-04-27 17:25 | 26.90680 | 50.58280 | 17387 ft | 420 kts | 150° |
| 2026-04-27 17:25 | 26.88500 | 50.60403 | 17152 ft | 411 kts | 135° |
| 2026-04-27 17:26 | 26.86642 | 50.62782 | 16937 ft | 399 kts | 133° |
| 2026-04-27 17:26 | 26.84877 | 50.65114 | 16754 ft | 386 kts | 133° |
| 2026-04-27 17:26 | 26.83181 | 50.67366 | 16580 ft | 373 kts | 133° |
| 2026-04-27 17:26 | 26.81537 | 50.69551 | 16409 ft | 361 kts | 133° |
| 2026-04-27 17:27 | 26.79943 | 50.71668 | 16235 ft | 350 kts | 133° |
| 2026-04-27 17:27 | 26.78400 | 50.73719 | 16100 ft | 339 kts | 133° |
| 2026-04-27 17:27 | 26.76910 | 50.75700 | 15956 ft | 328 kts | 133° |
| 2026-04-27 17:27 | 26.75456 | 50.77636 | 15709 ft | 322 kts | 133° |
| 2026-04-27 17:28 | 26.73903 | 50.79408 | 15377 ft | 316 kts | 145° |
| 2026-04-27 17:28 | 26.72047 | 50.80628 | 15027 ft | 306 kts | 165° |
| 2026-04-27 17:28 | 26.67979 | 50.80760 | 14328 ft | 290 kts | 194° |
| 2026-04-27 17:29 | 26.66641 | 50.80503 | 14186 ft | 285 kts | 195° |
| 2026-04-27 17:29 | 26.64721 | 50.80103 | 14059 ft | 275 kts | 195° |
| 2026-04-27 17:29 | 26.62872 | 50.79710 | 13904 ft | 267 kts | 195° |
| 2026-04-27 17:29 | 26.61083 | 50.79328 | 13667 ft | 263 kts | 196° |
| 2026-04-27 17:30 | 26.59270 | 50.78940 | 13375 ft | 261 kts | 196° |
| 2026-04-27 17:30 | 26.55753 | 50.78192 | 12741 ft | 258 kts | 195° |
| 2026-04-27 17:30 | 26.54000 | 50.77821 | 12426 ft | 256 kts | 195° |
| 2026-04-27 17:31 | 26.52252 | 50.77451 | 12119 ft | 254 kts | 195° |
| 2026-04-27 17:31 | 26.50522 | 50.77085 | 11817 ft | 252 kts | 195° |
| 2026-04-27 17:31 | 26.48829 | 50.76730 | 11708 ft | 241 kts | 195° |
| 2026-04-27 17:31 | 26.47242 | 50.76400 | 11454 ft | 225 kts | 195° |
| 2026-04-27 17:32 | 26.45692 | 50.76211 | 10913 ft | 228 kts | 178° |
| 2026-04-27 17:32 | 26.43197 | 50.78326 | 9799 ft | 240 kts | 119° |
| 2026-04-27 17:32 | 26.42542 | 50.80031 | 9268 ft | 238 kts | 114° |
| 2026-04-27 17:33 | 26.41956 | 50.81752 | 8730 ft | 236 kts | 113° |
| 2026-04-27 17:33 | 26.41379 | 50.83463 | 8236 ft | 234 kts | 113° |
| 2026-04-27 17:33 | 26.40833 | 50.85173 | 8022 ft | 236 kts | 105° |
| 2026-04-27 17:33 | 26.40884 | 50.87000 | 8008 ft | 247 kts | 71° |
| 2026-04-27 17:34 | 26.41830 | 50.88669 | 8004 ft | 266 kts | 40° |
| 2026-04-27 17:34 | 26.43384 | 50.89839 | 8005 ft | 272 kts | 25° |
| 2026-04-27 17:34 | 26.45075 | 50.90798 | 8007 ft | 274 kts | 23° |
| 2026-04-27 17:34 | 26.46794 | 50.91735 | 8009 ft | 275 kts | 23° |
| 2026-04-27 17:35 | 26.48513 | 50.92671 | 8011 ft | 275 kts | 23° |
| 2026-04-27 17:35 | 26.50229 | 50.93606 | 8012 ft | 275 kts | 23° |
| 2026-04-27 17:35 | 26.51951 | 50.94541 | 8012 ft | 275 kts | 23° |
| 2026-04-27 17:35 | 26.53667 | 50.95476 | 8012 ft | 275 kts | 23° |
| 2026-04-27 17:36 | 26.55388 | 50.96414 | 8012 ft | 275 kts | 23° |
| 2026-04-27 17:36 | 26.57104 | 50.97349 | 8015 ft | 275 kts | 23° |
| 2026-04-27 17:36 | 26.58819 | 50.98285 | 8015 ft | 275 kts | 23° |
| 2026-04-27 17:36 | 26.60542 | 50.99225 | 8015 ft | 275 kts | 23° |
| 2026-04-27 17:37 | 26.62261 | 51.00156 | 8014 ft | 274 kts | 21° |
| 2026-04-27 17:37 | 26.64079 | 51.00710 | 8015 ft | 269 kts | 2° |
| 2026-04-27 17:37 | 26.65905 | 51.00520 | 8015 ft | 262 kts | 338° |
| 2026-04-27 17:37 | 26.67433 | 50.99501 | 8015 ft | 255 kts | 312° |
| 2026-04-27 17:38 | 26.68347 | 50.97855 | 8015 ft | 249 kts | 286° |
| 2026-04-27 17:38 | 26.68485 | 50.95946 | 8012 ft | 247 kts | 261° |
| 2026-04-27 17:38 | 26.67851 | 50.94170 | 8013 ft | 250 kts | 237° |
| 2026-04-27 17:38 | 26.66643 | 50.92771 | 8014 ft | 253 kts | 220° |
| 2026-04-27 17:39 | 26.65185 | 50.91650 | 8011 ft | 255 kts | 216° |
| 2026-04-27 17:39 | 26.63695 | 50.90583 | 8012 ft | 255 kts | 216° |
| 2026-04-27 17:39 | 26.62205 | 50.89503 | 8012 ft | 255 kts | 216° |
| 2026-04-27 17:39 | 26.60728 | 50.88412 | 8013 ft | 255 kts | 216° |
| 2026-04-27 17:40 | 26.59258 | 50.87312 | 8008 ft | 255 kts | 216° |
| 2026-04-27 17:40 | 26.57788 | 50.86203 | 8009 ft | 254 kts | 216° |
| 2026-04-27 17:40 | 26.56325 | 50.85097 | 8009 ft | 254 kts | 216° |
| 2026-04-27 17:40 | 26.54862 | 50.83987 | 8008 ft | 254 kts | 216° |
| 2026-04-27 17:41 | 26.53396 | 50.82874 | 8007 ft | 254 kts | 216° |
| 2026-04-27 17:41 | 26.51933 | 50.81763 | 8006 ft | 254 kts | 216° |
| 2026-04-27 17:41 | 26.50480 | 50.80660 | 7881 ft | 252 kts | 216° |
| 2026-04-27 17:41 | 26.49023 | 50.79553 | 7649 ft | 253 kts | 216° |
| 2026-04-27 17:42 | 26.47571 | 50.78451 | 7406 ft | 253 kts | 216° |
| 2026-04-27 17:42 | 26.46119 | 50.77349 | 7171 ft | 252 kts | 216° |
| 2026-04-27 17:42 | 26.44668 | 50.76250 | 6937 ft | 252 kts | 216° |
| 2026-04-27 17:42 | 26.43176 | 50.75228 | 6703 ft | 252 kts | 212° |
| 2026-04-27 17:43 | 26.41695 | 50.74299 | 6472 ft | 233 kts | 211° |
| 2026-04-27 17:43 | 26.40362 | 50.73424 | 6246 ft | 211 kts | 217° |
| 2026-04-27 17:43 | 26.39313 | 50.72349 | 6013 ft | 202 kts | 233° |
| 2026-04-27 17:43 | 26.38630 | 50.71002 | 5770 ft | 200 kts | 250° |
| 2026-04-27 17:44 | 26.38377 | 50.69504 | 5533 ft | 200 kts | 268° |
| 2026-04-27 17:44 | 26.38580 | 50.67950 | 5290 ft | 202 kts | 286° |
| 2026-04-27 17:44 | 26.39178 | 50.66554 | 5061 ft | 203 kts | 297° |
| 2026-04-27 17:44 | 26.39934 | 50.65217 | 4876 ft | 204 kts | 300° |
| 2026-04-27 17:45 | 26.40714 | 50.63893 | 4754 ft | 204 kts | 300° |
| 2026-04-27 17:45 | 26.41487 | 50.62574 | 4645 ft | 202 kts | 299° |
| 2026-04-27 17:45 | 26.42254 | 50.61256 | 4540 ft | 203 kts | 299° |
| 2026-04-27 17:45 | 26.43019 | 50.59932 | 4311 ft | 203 kts | 299° |
| 2026-04-27 17:46 | 26.43786 | 50.58599 | 3743 ft | 205 kts | 299° |
| 2026-04-27 17:46 | 26.44557 | 50.57258 | 3253 ft | 205 kts | 299° |
| 2026-04-27 17:46 | 26.45328 | 50.55913 | 3041 ft | 207 kts | 299° |
| 2026-04-27 17:46 | 26.46108 | 50.54553 | 3008 ft | 208 kts | 299° |
| 2026-04-27 17:47 | 26.46815 | 50.53162 | 2997 ft | 204 kts | 283° |
| 2026-04-27 17:47 | 26.46913 | 50.52124 | 3003 ft | 197 kts | 259° |
| 2026-04-27 17:47 | 26.46031 | 50.50456 | 3010 ft | 191 kts | 219° |
| 2026-04-27 17:47 | 26.44961 | 50.49568 | 3006 ft | 192 kts | 213° |
| 2026-04-27 17:48 | 26.43853 | 50.48733 | 2996 ft | 192 kts | 212° |
| 2026-04-27 17:48 | 26.42620 | 50.48225 | 2994 ft | 192 kts | 183° |
| 2026-04-27 17:48 | 26.41284 | 50.48216 | 2997 ft | 192 kts | 187° |
| 2026-04-27 17:48 | 26.39965 | 50.47969 | 2993 ft | 192 kts | 192° |
| 2026-04-27 17:49 | 26.38660 | 50.47659 | 2992 ft | 192 kts | 193° |
| 2026-04-27 17:49 | 26.37341 | 50.47421 | 2957 ft | 193 kts | 176° |
| 2026-04-27 17:49 | 26.36123 | 50.48019 | 2789 ft | 195 kts | 145° |
| 2026-04-27 17:49 | 26.35232 | 50.49131 | 2542 ft | 188 kts | 126° |
| 2026-04-27 17:50 | 26.34576 | 50.50334 | 2304 ft | 174 kts | 125° |
| 2026-04-27 17:50 | 26.33367 | 50.52440 | 1907 ft | 146 kts | 126° |
| 2026-04-27 17:50 | 26.32850 | 50.53339 | 1740 ft | 132 kts | 126° |
| 2026-04-27 17:51 | 26.32358 | 50.54195 | 1571 ft | 131 kts | 125° |
| 2026-04-27 17:51 | 26.31868 | 50.55047 | 1390 ft | 131 kts | 126° |
| 2026-04-27 17:51 | 26.31375 | 50.55905 | 1233 ft | 131 kts | 126° |
| 2026-04-27 17:51 | 26.30883 | 50.56762 | 1056 ft | 131 kts | 125° |
| 2026-04-27 17:52 | 26.30390 | 50.57619 | 893 ft | 131 kts | 124° |
| 2026-04-27 17:52 | 26.29901 | 50.58471 | 739 ft | 130 kts | 123° |
| 2026-04-27 17:52 | 26.29414 | 50.59319 | 584 ft | 130 kts | 123° |
| 2026-04-27 17:52 | 26.28928 | 50.60165 | 413 ft | 130 kts | 124° |
| 2026-04-27 17:53 | 26.28443 | 50.61010 | 256 ft | 128 kts | 123° |
| 2026-04-27 17:53 | 26.27964 | 50.61840 | 91 ft | 128 kts | 122° |
| 2026-04-27 17:53 | 26.27507 | 50.62650 | 21 ft | 115 kts | 124° |
| 2026-04-27 17:53 | 26.27187 | 50.63201 | 16 ft | 43 kts | 122° |
| 2026-04-27 17:54 | 26.27027 | 50.63461 | 16 ft | 40 kts | 128° |
| 2026-04-27 17:54 | 26.26871 | 50.63697 | 16 ft | 36 kts | 138° |
| 2026-04-27 17:54 | 26.26722 | 50.63766 | 17 ft | 13 kts | 166° |
| 2026-04-27 17:54 | 26.26631 | 50.63782 | 17 ft | 12 kts | 187° |
| 2026-04-27 17:55 | 26.26593 | 50.63766 | 17 ft | 0 kts | 217° |
| 2026-04-27 17:56 | 26.26572 | 50.63755 | 17 ft | 8 kts | 196° |
| 2026-04-27 17:56 | 26.26516 | 50.63782 | 18 ft | 9 kts | 125° |
| 2026-04-27 17:56 | 26.26484 | 50.63839 | 18 ft | 9 kts | 122° |
| 2026-04-27 17:56 | 26.26447 | 50.63883 | 18 ft | 6 kts | 169° |
| 2026-04-27 17:57 | 26.26413 | 50.63870 | 18 ft | 5 kts | 199° |
| 2026-04-27 17:57 | 26.26379 | 50.63850 | 18 ft | 6 kts | 214° |
| 2026-04-27 17:57 | 26.26371 | 50.63844 | 18 ft | 0 kts | 214° |